createdAt,value
2017-12-02T00:00:18.880Z,1019.01
2017-12-02T00:01:18.874Z,1019.05
2017-12-02T00:02:18.869Z,1019.07
2017-12-02T00:03:18.865Z,1019.08
2017-12-02T00:04:18.855Z,1019.08
2017-12-02T00:05:18.850Z,1019.05
2017-12-02T00:06:18.848Z,1019.12
2017-12-02T00:07:18.839Z,1019.08
2017-12-02T00:08:18.846Z,1019.10
2017-12-02T00:09:18.831Z,1019.13
2017-12-02T00:10:18.833Z,1019.08
2017-12-02T00:11:18.821Z,1019.12
2017-12-02T00:12:18.810Z,1019.12
2017-12-02T00:13:18.809Z,1019.08
2017-12-02T00:14:18.810Z,1019.08
2017-12-02T00:15:18.816Z,1019.12
2017-12-02T00:16:18.790Z,1019.12
2017-12-02T00:17:18.788Z,1019.18
2017-12-02T00:18:18.807Z,1019.20
2017-12-02T00:19:18.784Z,1019.22
2017-12-02T00:20:18.775Z,1019.22
2017-12-02T00:21:18.768Z,1019.20
2017-12-02T00:22:18.760Z,1019.19
2017-12-02T00:23:18.760Z,1019.20
2017-12-02T00:24:18.752Z,1019.19
2017-12-02T00:25:18.745Z,1019.22
2017-12-02T00:26:18.750Z,1019.19
2017-12-02T00:27:18.736Z,1019.24
2017-12-02T00:28:18.729Z,1019.28
2017-12-02T00:29:18.728Z,1019.24
2017-12-02T00:30:18.721Z,1019.31
2017-12-02T00:31:18.721Z,1019.30
2017-12-02T00:32:18.713Z,1019.27
2017-12-02T00:33:18.704Z,1019.33
2017-12-02T00:34:18.706Z,1019.33
2017-12-02T00:35:18.699Z,1019.35
2017-12-02T00:36:18.689Z,1019.32
2017-12-02T00:37:18.683Z,1019.33
2017-12-02T00:38:18.681Z,1019.36
2017-12-02T00:39:18.675Z,1019.33
2017-12-02T00:40:18.671Z,1019.35
2017-12-02T00:41:18.663Z,1019.36
2017-12-02T00:42:18.664Z,1019.37
2017-12-02T00:43:18.651Z,1019.36
2017-12-02T00:44:18.649Z,1019.37
2017-12-02T00:45:18.640Z,1019.42
2017-12-02T00:46:18.641Z,1019.41
2017-12-02T00:47:18.637Z,1019.44
2017-12-02T00:48:18.656Z,1019.45
2017-12-02T00:49:18.626Z,1019.45
2017-12-02T00:50:18.619Z,1019.44
2017-12-02T00:51:18.618Z,1019.45
2017-12-02T00:52:18.608Z,1019.45
2017-12-02T00:53:18.612Z,1019.50
2017-12-02T00:54:18.596Z,1019.50
2017-12-02T00:55:18.596Z,1019.51
2017-12-02T00:56:18.598Z,1019.46
2017-12-02T00:57:18.584Z,1019.49
2017-12-02T00:58:18.575Z,1019.49
2017-12-02T00:59:18.571Z,1019.47
2017-12-02T01:00:18.566Z,1019.52
2017-12-02T01:01:18.565Z,1019.52
2017-12-02T01:02:18.558Z,1019.54
2017-12-02T01:03:18.546Z,1019.53
2017-12-02T01:04:18.542Z,1019.60
2017-12-02T01:05:18.541Z,1019.57
2017-12-02T01:06:18.536Z,1019.61
2017-12-02T01:07:18.526Z,1019.62
2017-12-02T01:08:18.528Z,1019.68
2017-12-02T01:09:18.524Z,1019.65
2017-12-02T01:10:18.520Z,1019.68
2017-12-02T01:11:18.504Z,1019.71
2017-12-02T01:12:18.505Z,1019.69
2017-12-02T01:13:18.500Z,1019.71
2017-12-02T01:14:18.496Z,1019.69
2017-12-02T01:15:18.489Z,1019.71
2017-12-02T01:16:18.483Z,1019.70
2017-12-02T01:17:18.480Z,1019.72
2017-12-02T01:18:18.470Z,1019.69
2017-12-02T01:19:18.469Z,1019.74
2017-12-02T01:20:18.461Z,1019.72
2017-12-02T01:21:18.466Z,1019.73
2017-12-02T01:22:18.506Z,1019.69
2017-12-02T01:23:18.450Z,1019.73
2017-12-02T01:24:18.441Z,1019.76
2017-12-02T01:25:18.442Z,1019.80
2017-12-02T01:26:18.433Z,1019.77
2017-12-02T01:27:18.437Z,1019.78
2017-12-02T01:28:18.424Z,1019.78
2017-12-02T01:29:18.416Z,1019.83
2017-12-02T01:30:18.417Z,1019.82
2017-12-02T01:31:18.408Z,1019.84
2017-12-02T01:32:18.401Z,1019.83
2017-12-02T01:33:18.399Z,1019.83
2017-12-02T01:34:18.392Z,1019.77
2017-12-02T01:35:18.392Z,1019.82
2017-12-02T01:36:18.385Z,1019.80
2017-12-02T01:37:18.376Z,1019.83
2017-12-02T01:38:18.371Z,1019.83
2017-12-02T01:39:18.371Z,1019.87
2017-12-02T01:40:18.362Z,1019.85
2017-12-02T01:41:18.361Z,1019.88
2017-12-02T01:42:18.351Z,1019.85
2017-12-02T01:43:18.349Z,1019.88
2017-12-02T01:44:18.340Z,1019.89
2017-12-02T01:45:18.347Z,1019.87
2017-12-02T01:46:18.333Z,1019.87
2017-12-02T01:47:18.340Z,1019.92
2017-12-02T01:48:18.332Z,1019.91
2017-12-02T01:49:18.327Z,1019.89
2017-12-02T01:50:18.313Z,1019.87
2017-12-02T01:51:18.305Z,1019.89
2017-12-02T01:52:18.302Z,1019.94
2017-12-02T01:53:18.308Z,1019.92
2017-12-02T01:54:18.298Z,1019.95
2017-12-02T01:55:18.287Z,1019.95
2017-12-02T01:56:18.284Z,1019.97
2017-12-02T01:57:18.290Z,1019.93
2017-12-02T01:58:18.286Z,1019.93
2017-12-02T01:59:18.269Z,1019.95
2017-12-02T02:00:18.264Z,1020.01
2017-12-02T02:01:18.283Z,1020.00
2017-12-02T02:02:18.261Z,1020.00
2017-12-02T02:03:18.251Z,1019.99
2017-12-02T02:04:18.249Z,1020.02
2017-12-02T02:05:18.243Z,1020.06
2017-12-02T02:06:18.240Z,1020.03
2017-12-02T02:07:18.234Z,1020.03
2017-12-02T02:08:18.227Z,1020.03
2017-12-02T02:09:18.222Z,1020.06
2017-12-02T02:10:18.214Z,1020.06
2017-12-02T02:11:18.228Z,1020.07
2017-12-02T02:12:18.208Z,1020.11
2017-12-02T02:13:18.200Z,1020.13
2017-12-02T02:14:18.200Z,1020.09
2017-12-02T02:15:18.192Z,1020.09
2017-12-02T02:16:18.217Z,1020.13
2017-12-02T02:17:18.191Z,1020.07
2017-12-02T02:18:18.173Z,1020.09
2017-12-02T02:19:18.174Z,1020.04
2017-12-02T02:20:18.169Z,1020.07
2017-12-02T02:21:18.163Z,1020.07
2017-12-02T02:22:18.161Z,1020.05
2017-12-02T02:23:18.151Z,1020.08
2017-12-02T02:24:18.150Z,1020.06
2017-12-02T02:25:18.141Z,1020.04
2017-12-02T02:26:18.137Z,1020.08
2017-12-02T02:27:18.133Z,1020.05
2017-12-02T02:28:18.137Z,1020.07
2017-12-02T02:29:18.124Z,1020.11
2017-12-02T02:30:18.122Z,1020.08
2017-12-02T02:31:18.112Z,1020.08
2017-12-02T02:32:18.113Z,1020.10
2017-12-02T02:33:18.113Z,1020.06
2017-12-02T02:34:18.102Z,1020.05
2017-12-02T02:35:18.095Z,1020.08
2017-12-02T02:36:18.097Z,1020.07
2017-12-02T02:37:18.088Z,1020.07
2017-12-02T02:38:18.081Z,1020.09
2017-12-02T02:39:18.076Z,1020.10
2017-12-02T02:40:18.071Z,1020.03
2017-12-02T02:41:18.070Z,1020.04
2017-12-02T02:42:18.062Z,1020.05
2017-12-02T02:43:18.056Z,1020.03
2017-12-02T02:44:18.057Z,1020.02
2017-12-02T02:45:18.048Z,1020.02
2017-12-02T02:46:18.043Z,1020.00
2017-12-02T02:47:18.039Z,1019.99
2017-12-02T02:48:18.031Z,1020.02
2017-12-02T02:49:18.031Z,1020.01
2017-12-02T02:50:18.028Z,1020.02
2017-12-02T02:51:18.025Z,1020.05
2017-12-02T02:52:18.014Z,1020.06
2017-12-02T02:53:18.006Z,1020.08
2017-12-02T02:54:18.017Z,1020.12
2017-12-02T02:55:18.003Z,1020.14
2017-12-02T02:56:17.995Z,1020.17
2017-12-02T02:57:17.991Z,1020.16
2017-12-02T02:58:17.992Z,1020.17
2017-12-02T02:59:17.978Z,1020.20
2017-12-02T03:00:17.974Z,1020.23
2017-12-02T03:01:17.969Z,1020.19
2017-12-02T03:02:17.966Z,1020.19
2017-12-02T03:03:17.961Z,1020.20
2017-12-02T03:04:17.981Z,1020.18
2017-12-02T03:05:17.949Z,1020.18
2017-12-02T03:06:17.968Z,1020.23
2017-12-02T03:07:17.942Z,1020.20
2017-12-02T03:08:17.939Z,1020.24
2017-12-02T03:09:17.932Z,1020.24
2017-12-02T03:10:17.926Z,1020.22
2017-12-02T03:11:17.922Z,1020.22
2017-12-02T03:12:17.918Z,1020.24
2017-12-02T03:13:17.920Z,1020.21
2017-12-02T03:14:17.909Z,1020.20
2017-12-02T03:15:17.905Z,1020.20
2017-12-02T03:16:17.902Z,1020.22
2017-12-02T03:17:17.894Z,1020.14
2017-12-02T03:18:17.893Z,1020.19
2017-12-02T03:19:17.881Z,1020.18
2017-12-02T03:20:17.883Z,1020.20
2017-12-02T03:21:17.883Z,1020.23
2017-12-02T03:22:17.871Z,1020.21
2017-12-02T03:23:17.871Z,1020.20
2017-12-02T03:24:17.865Z,1020.26
2017-12-02T03:25:17.862Z,1020.27
2017-12-02T03:26:17.852Z,1020.25
2017-12-02T03:27:17.847Z,1020.26
2017-12-02T03:28:17.854Z,1020.24
2017-12-02T03:29:17.838Z,1020.23
2017-12-02T03:30:17.834Z,1020.26
2017-12-02T03:31:17.833Z,1020.28
2017-12-02T03:32:17.833Z,1020.31
2017-12-02T03:33:17.823Z,1020.29
2017-12-02T03:34:17.811Z,1020.33
2017-12-02T03:35:17.826Z,1020.37
2017-12-02T03:36:17.806Z,1020.33
2017-12-02T03:37:17.801Z,1020.32
2017-12-02T03:38:17.805Z,1020.26
2017-12-02T03:39:17.793Z,1020.30
2017-12-02T03:40:17.786Z,1020.28
2017-12-02T03:41:17.782Z,1020.27
2017-12-02T03:42:17.781Z,1020.24
2017-12-02T03:43:17.792Z,1020.29
2017-12-02T03:44:17.768Z,1020.28
2017-12-02T03:45:17.763Z,1020.28
2017-12-02T03:46:17.756Z,1020.31
2017-12-02T03:47:17.752Z,1020.35
2017-12-02T03:48:17.769Z,1020.34
2017-12-02T03:49:17.749Z,1020.35
2017-12-02T03:50:17.758Z,1020.37
2017-12-02T03:51:17.738Z,1020.35
2017-12-02T03:52:17.747Z,1020.34
2017-12-02T03:53:17.726Z,1020.37
2017-12-02T03:54:17.718Z,1020.38
2017-12-02T03:55:17.713Z,1020.35
2017-12-02T03:56:17.710Z,1020.38
2017-12-02T03:57:17.713Z,1020.36
2017-12-02T03:58:17.702Z,1020.39
2017-12-02T03:59:17.698Z,1020.36
2017-12-02T04:00:17.701Z,1020.41
2017-12-02T04:01:17.690Z,1020.43
2017-12-02T04:02:17.682Z,1020.38
2017-12-02T04:03:17.681Z,1020.40
2017-12-02T04:04:17.672Z,1020.43
2017-12-02T04:05:17.673Z,1020.42
2017-12-02T04:06:17.666Z,1020.45
2017-12-02T04:07:17.664Z,1020.45
2017-12-02T04:08:17.689Z,1020.43
2017-12-02T04:09:17.656Z,1020.48
2017-12-02T04:10:17.653Z,1020.43
2017-12-02T04:11:17.639Z,1020.47
2017-12-02T04:12:17.640Z,1020.47
2017-12-02T04:13:17.631Z,1020.48
2017-12-02T04:14:17.632Z,1020.48
2017-12-02T04:15:17.626Z,1020.49
2017-12-02T04:16:17.623Z,1020.46
2017-12-02T04:17:17.619Z,1020.46
2017-12-02T04:18:17.614Z,1020.49
2017-12-02T04:19:17.600Z,1020.51
2017-12-02T04:20:17.598Z,1020.53
2017-12-02T04:21:17.603Z,1020.52
2017-12-02T04:22:17.598Z,1020.55
2017-12-02T04:23:17.581Z,1020.58
2017-12-02T04:24:17.581Z,1020.56
2017-12-02T04:25:17.582Z,1020.55
2017-12-02T04:26:17.573Z,1020.57
2017-12-02T04:27:17.568Z,1020.58
2017-12-02T04:28:17.566Z,1020.55
2017-12-02T04:29:17.558Z,1020.52
2017-12-02T04:30:17.553Z,1020.55
2017-12-02T04:31:17.545Z,1020.54
2017-12-02T04:32:17.553Z,1020.54
2017-12-02T04:33:17.536Z,1020.58
2017-12-02T04:34:17.537Z,1020.57
2017-12-02T04:35:17.534Z,1020.63
2017-12-02T04:36:17.525Z,1020.62
2017-12-02T04:37:17.516Z,1020.60
2017-12-02T04:38:17.518Z,1020.63
2017-12-02T04:39:17.506Z,1020.66
2017-12-02T04:40:17.503Z,1020.64
2017-12-02T04:41:17.507Z,1020.66
2017-12-02T04:42:17.493Z,1020.65
2017-12-02T04:43:17.497Z,1020.70
2017-12-02T04:44:17.484Z,1020.70
2017-12-02T04:45:17.477Z,1020.69
2017-12-02T04:46:17.483Z,1020.69
2017-12-02T04:47:17.475Z,1020.67
2017-12-02T04:48:17.474Z,1020.70
2017-12-02T04:49:17.462Z,1020.73
2017-12-02T04:50:17.457Z,1020.74
2017-12-02T04:51:17.452Z,1020.76
2017-12-02T04:52:17.443Z,1020.73
2017-12-02T04:53:17.463Z,1020.77
2017-12-02T04:54:17.439Z,1020.72
2017-12-02T04:55:17.429Z,1020.78
2017-12-02T04:56:17.431Z,1020.79
2017-12-02T04:57:17.430Z,1020.80
2017-12-02T04:58:17.422Z,1020.83
2017-12-02T04:59:17.416Z,1020.79
2017-12-02T05:00:17.408Z,1020.84
2017-12-02T05:01:17.403Z,1020.87
2017-12-02T05:02:17.395Z,1020.86
2017-12-02T05:03:17.394Z,1020.92
2017-12-02T05:04:17.389Z,1020.90
2017-12-02T05:05:17.382Z,1020.91
2017-12-02T05:06:17.376Z,1020.96
2017-12-02T05:07:17.375Z,1020.96
2017-12-02T05:08:17.374Z,1020.94
2017-12-02T05:09:17.389Z,1020.96
2017-12-02T05:10:17.361Z,1020.95
2017-12-02T05:11:17.358Z,1021.00
2017-12-02T05:12:17.349Z,1020.97
2017-12-02T05:13:17.356Z,1020.99
2017-12-02T05:14:17.343Z,1021.00
2017-12-02T05:15:17.342Z,1021.05
2017-12-02T05:16:17.329Z,1021.02
2017-12-02T05:17:17.332Z,1021.06
2017-12-02T05:18:17.324Z,1021.04
2017-12-02T05:19:17.314Z,1021.07
2017-12-02T05:20:17.313Z,1021.07
2017-12-02T05:21:17.305Z,1021.08
2017-12-02T05:22:17.301Z,1021.10
2017-12-02T05:23:17.299Z,1021.07
2017-12-02T05:24:17.291Z,1021.13
2017-12-02T05:25:17.287Z,1021.11
2017-12-02T05:26:17.284Z,1021.11
2017-12-02T05:27:17.276Z,1021.10
2017-12-02T05:28:17.322Z,1021.14
2017-12-02T05:29:17.267Z,1021.13
2017-12-02T05:30:17.272Z,1021.14
2017-12-02T05:31:17.257Z,1021.14
2017-12-02T05:32:17.249Z,1021.18
2017-12-02T05:33:17.247Z,1021.17
2017-12-02T05:34:17.242Z,1021.20
2017-12-02T05:35:17.244Z,1021.21
2017-12-02T05:36:17.229Z,1021.22
2017-12-02T05:37:17.234Z,1021.24
2017-12-02T05:38:17.217Z,1021.21
2017-12-02T05:39:17.215Z,1021.22
2017-12-02T05:40:17.220Z,1021.26
2017-12-02T05:41:17.204Z,1021.27
2017-12-02T05:42:17.203Z,1021.29
2017-12-02T05:43:17.193Z,1021.25
2017-12-02T05:44:17.190Z,1021.27
2017-12-02T05:45:17.214Z,1021.29
2017-12-02T05:46:17.181Z,1021.28
2017-12-02T05:47:17.178Z,1021.28
2017-12-02T05:48:17.177Z,1021.32
2017-12-02T05:49:17.176Z,1021.31
2017-12-02T05:50:17.168Z,1021.36
2017-12-02T05:51:17.158Z,1021.34
2017-12-02T05:52:17.150Z,1021.38
2017-12-02T05:53:17.144Z,1021.41
2017-12-02T05:54:17.173Z,1021.42
2017-12-02T05:55:17.135Z,1021.37
2017-12-02T05:56:17.138Z,1021.42
2017-12-02T05:57:17.130Z,1021.44
2017-12-02T05:58:17.122Z,1021.49
2017-12-02T05:59:17.111Z,1021.49
2017-12-02T06:00:17.110Z,1021.51
2017-12-02T06:01:17.115Z,1021.56
2017-12-02T06:02:17.104Z,1021.53
2017-12-02T06:03:17.098Z,1021.59
2017-12-02T06:04:17.094Z,1021.54
2017-12-02T06:05:17.085Z,1021.57
2017-12-02T06:06:17.078Z,1021.62
2017-12-02T06:07:17.076Z,1021.63
2017-12-02T06:08:17.069Z,1021.59
2017-12-02T06:09:17.062Z,1021.63
2017-12-02T06:10:17.061Z,1021.63
2017-12-02T06:11:17.053Z,1021.62
2017-12-02T06:12:17.378Z,1021.61
2017-12-02T06:13:17.045Z,1021.63
2017-12-02T06:14:17.036Z,1021.61
2017-12-02T06:15:17.031Z,1021.63
2017-12-02T06:16:17.022Z,1021.59
2017-12-02T06:17:17.017Z,1021.60
2017-12-02T06:18:17.022Z,1021.59
2017-12-02T06:19:17.018Z,1021.59
2017-12-02T06:20:17.002Z,1021.59
2017-12-02T06:21:16.997Z,1021.62
2017-12-02T06:22:16.991Z,1021.61
2017-12-02T06:23:16.992Z,1021.59
2017-12-02T06:24:16.983Z,1021.60
2017-12-02T06:25:16.986Z,1021.56
2017-12-02T06:26:16.978Z,1021.56
2017-12-02T06:27:16.982Z,1021.53
2017-12-02T06:28:16.965Z,1021.51
2017-12-02T06:29:16.954Z,1021.55
2017-12-02T06:30:16.958Z,1021.49
2017-12-02T06:31:16.943Z,1021.50
2017-12-02T06:32:16.941Z,1021.51
2017-12-02T06:33:16.942Z,1021.49
2017-12-02T06:34:16.947Z,1021.51
2017-12-02T06:35:16.928Z,1021.48
2017-12-02T06:36:17.004Z,1021.45
2017-12-02T06:37:16.918Z,1021.48
2017-12-02T06:38:16.983Z,1021.45
2017-12-02T06:39:16.906Z,1021.46
2017-12-02T06:40:16.907Z,1021.47
2017-12-02T06:41:16.896Z,1021.53
2017-12-02T06:42:16.888Z,1021.52
2017-12-02T06:43:16.882Z,1021.56
2017-12-02T06:44:16.890Z,1021.50
2017-12-02T06:45:16.882Z,1021.57
2017-12-02T06:46:16.873Z,1021.57
2017-12-02T06:47:16.865Z,1021.55
2017-12-02T06:48:16.858Z,1021.56
2017-12-02T06:49:16.853Z,1021.56
2017-12-02T06:50:16.851Z,1021.54
2017-12-02T06:51:16.840Z,1021.52
2017-12-02T06:52:16.844Z,1021.53
2017-12-02T06:53:16.841Z,1021.49
2017-12-02T06:54:16.823Z,1021.53
2017-12-02T06:55:16.822Z,1021.54
2017-12-02T06:56:16.824Z,1021.54
2017-12-02T06:57:16.822Z,1021.50
2017-12-02T06:58:16.807Z,1021.55
2017-12-02T06:59:16.814Z,1021.54
2017-12-02T07:00:16.808Z,1021.53
2017-12-02T07:01:16.805Z,1021.51
2017-12-02T07:02:16.786Z,1021.49
2017-12-02T07:03:16.783Z,1021.47
2017-12-02T07:04:16.778Z,1021.43
2017-12-02T07:05:16.769Z,1021.49
2017-12-02T07:06:16.779Z,1021.45
2017-12-02T07:07:16.755Z,1021.51
2017-12-02T07:08:16.754Z,1021.50
2017-12-02T07:09:16.750Z,1021.50
2017-12-02T07:10:16.742Z,1021.51
2017-12-02T07:11:16.744Z,1021.55
2017-12-02T07:12:16.729Z,1021.57
2017-12-02T07:13:16.731Z,1021.56
2017-12-02T07:14:16.729Z,1021.59
2017-12-02T07:15:16.722Z,1021.61
2017-12-02T07:16:16.712Z,1021.62
2017-12-02T07:17:16.716Z,1021.62
2017-12-02T07:18:16.700Z,1021.64
2017-12-02T07:19:16.696Z,1021.62
2017-12-02T07:20:16.695Z,1021.66
2017-12-02T07:21:16.685Z,1021.67
2017-12-02T07:22:16.688Z,1021.70
2017-12-02T07:23:16.756Z,1021.70
2017-12-02T07:24:16.673Z,1021.73
2017-12-02T07:25:16.672Z,1021.76
2017-12-02T07:26:16.662Z,1021.74
2017-12-02T07:27:16.654Z,1021.78
2017-12-02T07:28:16.664Z,1021.77
2017-12-02T07:29:16.645Z,1021.83
2017-12-02T07:30:16.640Z,1021.82
2017-12-02T07:31:16.636Z,1021.80
2017-12-02T07:32:16.632Z,1021.78
2017-12-02T07:33:16.623Z,1021.82
2017-12-02T07:34:16.625Z,1021.79
2017-12-02T07:36:48.726Z,1021.83
2017-12-02T07:37:48.688Z,1021.80
2017-12-02T07:38:48.672Z,1021.82
2017-12-02T07:39:48.668Z,1021.82
2017-12-02T07:40:48.673Z,1021.87
2017-12-02T07:41:48.656Z,1021.87
2017-12-02T07:42:48.660Z,1021.88
2017-12-02T07:43:48.657Z,1021.92
2017-12-02T07:44:48.646Z,1021.92
2017-12-02T07:45:48.637Z,1021.93
2017-12-02T07:46:48.632Z,1021.94
2017-12-02T07:47:48.626Z,1021.94
2017-12-02T07:48:48.621Z,1021.92
2017-12-02T07:49:48.615Z,1021.93
2017-12-02T07:50:48.623Z,1021.96
2017-12-02T07:51:48.610Z,1021.93
2017-12-02T07:52:48.606Z,1021.95
2017-12-02T07:53:48.601Z,1021.96
2017-12-02T07:54:48.593Z,1021.99
2017-12-02T07:55:48.599Z,1022.02
2017-12-02T07:56:48.580Z,1022.06
2017-12-02T07:57:48.846Z,1022.09
2017-12-02T07:58:49.019Z,1022.11
2017-12-02T07:59:48.963Z,1022.14
2017-12-02T08:00:48.754Z,1022.19
2017-12-02T08:01:48.747Z,1022.18
2017-12-02T08:02:48.736Z,1022.22
2017-12-02T08:03:48.549Z,1022.20
2017-12-02T08:04:48.543Z,1022.18
2017-12-02T08:05:48.541Z,1022.21
2017-12-02T08:06:48.535Z,1022.27
2017-12-02T08:07:48.534Z,1022.22
2017-12-02T08:08:48.539Z,1022.22
2017-12-02T08:09:48.522Z,1022.17
2017-12-02T08:10:48.517Z,1022.22
2017-12-02T08:11:48.514Z,1022.23
2017-12-02T08:12:48.503Z,1022.24
2017-12-02T08:13:48.501Z,1022.26
2017-12-02T08:14:48.495Z,1022.24
2017-12-02T08:15:48.490Z,1022.21
2017-12-02T08:16:48.482Z,1022.30
2017-12-02T08:17:48.480Z,1022.33
2017-12-02T08:18:48.473Z,1022.32
2017-12-02T08:19:48.471Z,1022.35
2017-12-02T08:20:48.469Z,1022.32
2017-12-02T08:21:48.457Z,1022.35
2017-12-02T08:22:48.456Z,1022.37
2017-12-02T08:23:48.449Z,1022.35
2017-12-02T08:24:48.462Z,1022.37
2017-12-02T08:25:48.442Z,1022.41
2017-12-02T08:26:48.434Z,1022.41
2017-12-02T08:27:48.434Z,1022.40
2017-12-02T08:28:48.436Z,1022.41
2017-12-02T08:29:48.423Z,1022.42
2017-12-02T08:30:48.420Z,1022.46
2017-12-02T08:31:48.412Z,1022.43
2017-12-02T08:32:48.411Z,1022.43
2017-12-02T08:33:48.403Z,1022.45
2017-12-02T08:34:48.397Z,1022.43
2017-12-02T08:35:48.394Z,1022.50
2017-12-02T08:36:48.388Z,1022.49
2017-12-02T08:37:48.381Z,1022.46
2017-12-02T08:38:48.385Z,1022.47
2017-12-02T08:39:48.380Z,1022.50
2017-12-02T08:40:48.368Z,1022.47
2017-12-02T08:41:48.359Z,1022.43
2017-12-02T08:42:48.354Z,1022.44
2017-12-02T08:43:48.350Z,1022.47
2017-12-02T08:44:48.345Z,1022.49
2017-12-02T08:45:48.348Z,1022.47
2017-12-02T08:46:48.343Z,1022.48
2017-12-02T08:47:48.334Z,1022.48
2017-12-02T08:48:48.327Z,1022.46
2017-12-02T08:49:48.323Z,1022.52
2017-12-02T08:50:48.326Z,1022.52
2017-12-02T08:51:48.312Z,1022.52
2017-12-02T08:52:48.312Z,1022.49
2017-12-02T08:53:48.307Z,1022.54
2017-12-02T08:54:48.303Z,1022.52
2017-12-02T08:55:48.294Z,1022.52
2017-12-02T08:56:48.294Z,1022.53
2017-12-02T08:57:48.281Z,1022.55
2017-12-02T08:58:48.276Z,1022.51
2017-12-02T08:59:48.274Z,1022.53
2017-12-02T09:00:48.270Z,1022.55
2017-12-02T09:01:48.265Z,1022.59
2017-12-02T09:02:48.261Z,1022.56
2017-12-02T09:03:48.260Z,1022.58
2017-12-02T09:04:48.253Z,1022.59
2017-12-02T09:05:48.243Z,1022.57
2017-12-02T09:06:48.243Z,1022.61
2017-12-02T09:07:48.235Z,1022.63
2017-12-02T09:08:48.246Z,1022.61
2017-12-02T09:09:48.228Z,1022.61
2017-12-02T09:10:48.222Z,1022.63
2017-12-02T09:11:48.214Z,1022.63
2017-12-02T09:12:48.213Z,1022.61
2017-12-02T09:13:48.205Z,1022.65
2017-12-02T09:14:48.199Z,1022.69
2017-12-02T09:15:48.202Z,1022.67
2017-12-02T09:16:48.191Z,1022.73
2017-12-02T09:17:48.193Z,1022.73
2017-12-02T09:18:48.182Z,1022.75
2017-12-02T09:19:48.184Z,1022.72
2017-12-02T09:20:48.173Z,1022.74
2017-12-02T09:21:48.176Z,1022.74
2017-12-02T09:22:48.161Z,1022.72
2017-12-02T09:23:48.158Z,1022.72
2017-12-02T09:24:48.153Z,1022.78
2017-12-02T09:25:48.150Z,1022.75
2017-12-02T09:26:48.142Z,1022.76
2017-12-02T09:27:48.139Z,1022.76
2017-12-02T09:28:48.133Z,1022.74
2017-12-02T09:29:48.133Z,1022.76
2017-12-02T09:30:48.124Z,1022.82
2017-12-02T09:33:20.233Z,1022.82
2017-12-02T09:34:20.188Z,1022.86
2017-12-02T09:35:20.176Z,1022.87
2017-12-02T09:36:20.177Z,1022.80
2017-12-02T09:37:20.164Z,1022.85
2017-12-02T09:38:20.161Z,1022.84
2017-12-02T09:39:20.160Z,1022.85
2017-12-02T09:40:20.156Z,1022.81
2017-12-02T09:41:20.164Z,1022.83
2017-12-02T09:42:20.148Z,1022.83
2017-12-02T09:43:20.140Z,1022.83
2017-12-02T09:44:20.138Z,1022.81
2017-12-02T09:45:20.132Z,1022.80
2017-12-02T09:46:20.132Z,1022.79
2017-12-02T09:47:20.124Z,1022.72
2017-12-02T09:48:20.119Z,1022.70
2017-12-02T09:49:20.115Z,1022.66
2017-12-02T09:50:20.110Z,1022.72
2017-12-02T09:51:20.107Z,1022.71
2017-12-02T09:52:20.103Z,1022.73
2017-12-02T09:53:20.094Z,1022.68
2017-12-02T09:54:20.093Z,1022.63
2017-12-02T09:55:20.085Z,1022.66
2017-12-02T09:56:20.083Z,1022.63
2017-12-02T09:57:20.076Z,1022.60
2017-12-02T09:58:20.071Z,1022.61
2017-12-02T09:59:20.070Z,1022.58
2017-12-02T10:00:20.062Z,1022.59
2017-12-02T10:01:20.059Z,1022.55
2017-12-02T10:02:20.053Z,1022.60
2017-12-02T10:03:20.767Z,1022.66
2017-12-02T10:04:20.770Z,1022.61
2017-12-02T10:05:21.761Z,1022.63
2017-12-02T10:06:20.762Z,1022.61
2017-12-02T10:07:27.554Z,1022.64
2017-12-02T10:08:20.022Z,1022.60
2017-12-02T10:09:20.026Z,1022.57
2017-12-02T10:10:20.017Z,1022.55
2017-12-02T10:11:20.012Z,1022.54
2017-12-02T10:12:20.010Z,1022.55
2017-12-02T10:13:20.004Z,1022.53
2017-12-02T10:14:20.011Z,1022.50
2017-12-02T10:15:20.000Z,1022.52
2017-12-02T10:16:19.985Z,1022.49
2017-12-02T10:17:19.995Z,1022.45
2017-12-02T10:18:19.978Z,1022.41
2017-12-02T10:19:19.979Z,1022.39
2017-12-02T10:20:19.968Z,1022.37
2017-12-02T10:21:19.974Z,1022.40
2017-12-02T10:22:19.964Z,1022.43
2017-12-02T10:23:19.958Z,1022.45
2017-12-02T10:24:19.951Z,1022.42
2017-12-02T10:25:19.949Z,1022.48
2017-12-02T10:26:19.939Z,1022.46
2017-12-02T10:27:19.936Z,1022.49
2017-12-02T10:28:19.930Z,1022.53
2017-12-02T10:29:19.928Z,1022.49
2017-12-02T10:30:19.922Z,1022.50
2017-12-02T10:31:19.917Z,1022.45
2017-12-02T10:32:19.913Z,1022.45
2017-12-02T10:33:19.912Z,1022.48
2017-12-02T10:34:19.910Z,1022.48
2017-12-02T10:35:19.906Z,1022.49
2017-12-02T10:36:19.896Z,1022.51
2017-12-02T10:37:19.891Z,1022.49
2017-12-02T10:38:19.886Z,1022.49
2017-12-02T10:39:19.884Z,1022.47
2017-12-02T10:40:19.882Z,1022.48
2017-12-02T10:41:19.871Z,1022.45
2017-12-02T10:42:19.867Z,1022.46
2017-12-02T10:43:19.864Z,1022.41
2017-12-02T10:44:19.867Z,1022.39
2017-12-02T10:45:19.857Z,1022.35
2017-12-02T10:46:19.849Z,1022.36
2017-12-02T10:47:19.851Z,1022.31
2017-12-02T10:48:19.844Z,1022.32
2017-12-02T10:49:19.845Z,1022.31
2017-12-02T10:50:19.832Z,1022.33
2017-12-02T10:51:19.833Z,1022.32
2017-12-02T10:52:19.845Z,1022.32
2017-12-02T10:53:19.818Z,1022.32
2017-12-02T10:54:19.811Z,1022.37
2017-12-02T10:55:19.858Z,1022.32
2017-12-02T10:56:19.803Z,1022.34
2017-12-02T10:57:19.804Z,1022.33
2017-12-02T10:58:19.795Z,1022.36
2017-12-02T10:59:19.799Z,1022.36
2017-12-02T11:00:19.791Z,1022.34
2017-12-02T11:01:19.783Z,1022.30
2017-12-02T11:02:19.785Z,1022.27
2017-12-02T11:03:19.787Z,1022.25
2017-12-02T11:04:19.766Z,1022.20
2017-12-02T11:05:19.764Z,1022.24
2017-12-02T11:06:19.768Z,1022.23
2017-12-02T11:07:19.753Z,1022.24
2017-12-02T11:08:19.758Z,1022.26
2017-12-02T11:09:19.745Z,1022.23
2017-12-02T11:10:19.752Z,1022.23
2017-12-02T11:11:19.734Z,1022.24
2017-12-02T11:12:19.726Z,1022.23
2017-12-02T11:13:19.724Z,1022.23
2017-12-02T11:14:19.720Z,1022.21
2017-12-02T11:15:19.729Z,1022.14
2017-12-02T11:16:19.714Z,1022.21
2017-12-02T11:17:19.703Z,1022.19
2017-12-02T11:18:19.698Z,1022.21
2017-12-02T11:19:19.699Z,1022.21
2017-12-02T11:20:19.690Z,1022.23
2017-12-02T11:21:19.689Z,1022.25
2017-12-02T11:22:19.686Z,1022.24
2017-12-02T11:23:19.674Z,1022.25
2017-12-02T11:24:19.679Z,1022.24
2017-12-02T11:25:19.665Z,1022.21
2017-12-02T11:26:19.658Z,1022.30
2017-12-02T11:27:19.659Z,1022.29
2017-12-02T11:28:19.651Z,1022.23
2017-12-02T11:29:19.652Z,1022.33
2017-12-02T11:30:19.640Z,1022.31
2017-12-02T11:31:19.634Z,1022.28
2017-12-02T11:32:19.634Z,1022.22
2017-12-02T11:33:19.624Z,1022.25
2017-12-02T11:34:19.617Z,1022.26
2017-12-02T11:35:19.618Z,1022.28
2017-12-02T11:36:19.615Z,1022.25
2017-12-02T11:37:19.612Z,1022.31
2017-12-02T11:38:19.600Z,1022.33
2017-12-02T11:39:19.597Z,1022.29
2017-12-02T11:40:19.595Z,1022.30
2017-12-02T11:41:19.593Z,1022.35
2017-12-02T11:42:19.583Z,1022.36
2017-12-02T11:43:19.589Z,1022.37
2017-12-02T11:44:19.573Z,1022.34
2017-12-02T11:45:19.575Z,1022.39
2017-12-02T11:46:19.562Z,1022.38
2017-12-02T11:47:19.559Z,1022.35
2017-12-02T11:48:19.559Z,1022.39
2017-12-02T11:49:19.549Z,1022.48
2017-12-02T11:50:19.541Z,1022.38
2017-12-02T11:51:19.534Z,1022.48
2017-12-02T11:52:19.532Z,1022.49
2017-12-02T11:53:19.533Z,1022.52
2017-12-02T11:54:19.521Z,1022.53
2017-12-02T11:55:19.522Z,1022.52
2017-12-02T11:56:19.513Z,1022.58
2017-12-02T11:57:19.512Z,1022.55
2017-12-02T11:58:19.508Z,1022.58
2017-12-02T11:59:19.499Z,1022.60
2017-12-02T12:00:19.492Z,1022.62
2017-12-02T12:01:19.497Z,1022.59
2017-12-02T12:02:19.483Z,1022.59
2017-12-02T12:03:19.483Z,1022.57
2017-12-02T12:04:19.539Z,1022.57
2017-12-02T12:05:19.479Z,1022.55
2017-12-02T12:06:19.463Z,1022.50
2017-12-02T12:07:19.460Z,1022.51
2017-12-02T12:08:19.461Z,1022.48